createdAt,value
2022-09-29T00:01:10.884Z,5.93
2022-09-29T00:03:38.013Z,7.13
2022-09-29T00:06:12.202Z,6.63
2022-09-29T00:08:39.368Z,6.40
2022-09-29T00:11:10.920Z,5.53
2022-09-29T00:13:38.125Z,7.10
2022-09-29T00:16:06.248Z,6.18
2022-09-29T00:18:34.320Z,7.13
2022-09-29T00:21:13.945Z,7.60
2022-09-29T00:23:41.295Z,8.82
2022-09-29T00:26:11.114Z,6.80
2022-09-29T00:28:40.446Z,6.97
2022-09-29T00:31:09.712Z,6.85
2022-09-29T00:33:37.425Z,6.07
2022-09-29T00:36:07.448Z,10.05
2022-09-29T00:38:35.478Z,5.25
2022-09-29T00:41:05.184Z,9.60
2022-09-29T00:44:07.809Z,8.63
2022-09-29T00:46:54.724Z,8.43
2022-09-29T00:49:36.740Z,13.40
2022-09-29T00:52:12.865Z,8.20
2022-09-29T00:54:49.995Z,7.70
2022-09-29T00:57:20.392Z,6.28
2022-09-29T01:00:09.824Z,7.28
2022-09-29T01:02:40.702Z,5.60
2022-09-29T01:05:11.794Z,5.68
2022-09-29T01:07:39.711Z,6.85
2022-09-29T01:10:07.591Z,5.55
2022-09-29T01:12:37.508Z,5.57
2022-09-29T01:15:06.243Z,10.50
2022-09-29T01:17:33.364Z,6.65
2022-09-29T01:20:13.208Z,8.05
2022-09-29T01:23:09.952Z,6.40
2022-09-29T01:25:59.648Z,6.32
2022-09-29T01:28:32.440Z,5.70
2022-09-29T01:31:16.303Z,5.28
2022-09-29T01:34:07.587Z,6.68
2022-09-29T01:37:00.893Z,7.28
2022-09-29T01:39:38.012Z,6.85
2022-09-29T01:42:36.806Z,7.13
2022-09-29T01:45:14.285Z,7.43
2022-09-29T01:47:46.052Z,8.23
2022-09-29T01:50:17.655Z,9.32
2022-09-29T01:52:51.663Z,8.85
2022-09-29T01:55:21.639Z,9.30
2022-09-29T01:58:00.009Z,7.85
2022-09-29T02:00:31.942Z,11.52
2022-09-29T02:03:06.122Z,9.07
2022-09-29T02:05:52.245Z,9.63
2022-09-29T02:08:32.661Z,8.23
2022-09-29T02:11:04.043Z,7.72
2022-09-29T02:13:37.904Z,7.68
2022-09-29T02:16:05.507Z,8.65
2022-09-29T02:18:40.286Z,6.63
2022-09-29T02:21:07.950Z,7.80
2022-09-29T02:23:35.116Z,7.55
2022-09-29T02:26:02.872Z,8.65
2022-09-29T02:28:30.067Z,8.50
2022-09-29T02:30:57.485Z,11.70
2022-09-29T02:33:25.806Z,7.40
2022-09-29T02:36:01.449Z,8.85
2022-09-29T02:38:38.557Z,8.93
2022-09-29T02:41:27.699Z,7.22
2022-09-29T02:44:09.227Z,8.70
2022-09-29T02:46:46.279Z,8.63
2022-09-29T02:49:28.218Z,8.90
2022-09-29T02:52:23.832Z,8.77
2022-09-29T02:55:12.316Z,9.37
2022-09-29T02:57:39.427Z,11.82
2022-09-29T03:00:11.232Z,9.02
2022-09-29T03:02:40.223Z,9.18
2022-09-29T03:05:17.284Z,8.13
2022-09-29T03:07:44.484Z,8.23
2022-09-29T03:10:13.777Z,8.70
2022-09-29T03:12:40.992Z,10.45
2022-09-29T03:15:08.771Z,7.97
2022-09-29T03:17:36.044Z,9.57
2022-09-29T03:20:04.070Z,12.60
2022-09-29T03:22:31.167Z,10.57
2022-09-29T03:24:58.314Z,9.13
2022-09-29T03:27:25.401Z,10.57
2022-09-29T03:29:52.574Z,10.98
2022-09-29T03:32:19.690Z,11.48
2022-09-29T03:34:46.798Z,10.45
2022-09-29T03:37:14.239Z,11.98
2022-09-29T03:39:41.528Z,11.52
2022-09-29T03:42:08.676Z,12.27
2022-09-29T03:44:35.912Z,12.38
2022-09-29T03:47:03.038Z,12.63
2022-09-29T03:49:30.091Z,10.82
2022-09-29T03:51:57.210Z,10.50
2022-09-29T03:54:26.348Z,10.35
2022-09-29T03:56:53.637Z,12.55
2022-09-29T03:59:20.852Z,11.65
2022-09-29T04:01:48.053Z,10.88
2022-09-29T04:04:15.232Z,11.55
2022-09-29T04:06:42.301Z,12.00
2022-09-29T04:09:09.368Z,11.20
2022-09-29T04:11:36.500Z,13.60
2022-09-29T04:14:03.667Z,13.25
2022-09-29T04:16:30.886Z,13.10
2022-09-29T04:18:58.100Z,10.60
2022-09-29T04:21:25.300Z,10.10
2022-09-29T04:23:52.392Z,11.32
2022-09-29T04:26:20.759Z,12.82
2022-09-29T04:28:47.950Z,11.00
2022-09-29T04:31:15.121Z,13.32
2022-09-29T04:33:42.260Z,14.20
2022-09-29T04:36:09.417Z,11.43
2022-09-29T04:38:36.540Z,13.25
2022-09-29T04:41:04.247Z,12.30
2022-09-29T04:43:31.545Z,10.98
2022-09-29T04:46:05.921Z,11.27
2022-09-29T04:48:36.078Z,11.55
2022-09-29T04:51:04.660Z,11.68
2022-09-29T04:53:31.766Z,11.55
2022-09-29T04:55:58.823Z,12.07
2022-09-29T04:58:25.970Z,11.20
2022-09-29T05:00:53.097Z,12.52
2022-09-29T05:03:20.278Z,12.95
2022-09-29T05:05:47.407Z,12.80
2022-09-29T05:08:14.920Z,18.73
2022-09-29T05:10:42.834Z,14.43
2022-09-29T05:13:10.500Z,14.50
2022-09-29T05:15:37.648Z,13.20
2022-09-29T05:18:05.004Z,13.43
2022-09-29T05:20:39.948Z,13.25
2022-09-29T05:23:10.340Z,13.60
2022-09-29T05:25:37.939Z,14.07
2022-09-29T05:28:05.233Z,12.48
2022-09-29T05:30:32.538Z,12.15
2022-09-29T05:32:59.689Z,14.70
2022-09-29T05:35:26.753Z,11.32
2022-09-29T05:37:54.190Z,11.40
2022-09-29T05:40:24.290Z,14.07
2022-09-29T05:42:51.936Z,16.52
2022-09-29T05:45:19.402Z,15.13
2022-09-29T05:47:46.634Z,12.23
2022-09-29T05:50:14.200Z,12.35
2022-09-29T05:52:41.605Z,12.30
2022-09-29T05:55:10.971Z,12.73
2022-09-29T05:57:38.361Z,14.43
2022-09-29T06:00:06.386Z,13.25
2022-09-29T06:02:34.185Z,15.32
2022-09-29T06:05:01.449Z,13.38
2022-09-29T06:07:28.764Z,13.63
2022-09-29T06:09:55.832Z,12.70
2022-09-29T06:12:22.953Z,15.00
2022-09-29T06:14:50.165Z,15.68
2022-09-29T06:17:17.316Z,15.10
2022-09-29T06:19:45.093Z,15.40
2022-09-29T06:22:12.433Z,15.82
2022-09-29T06:24:39.728Z,13.95
2022-09-29T06:27:06.880Z,11.75
2022-09-29T06:29:34.052Z,15.95
2022-09-29T06:32:01.720Z,17.35
2022-09-29T06:34:28.944Z,15.20
2022-09-29T06:37:15.147Z,13.23
2022-09-29T06:39:42.308Z,14.13
2022-09-29T06:42:09.418Z,21.23
2022-09-29T06:44:36.595Z,15.85
2022-09-29T06:47:03.690Z,13.88
2022-09-29T06:49:30.909Z,20.35
2022-09-29T06:51:58.536Z,15.70
2022-09-29T06:54:25.940Z,14.77
2022-09-29T06:56:55.234Z,18.35
2022-09-29T06:59:22.820Z,17.90
2022-09-29T07:01:51.131Z,15.38
2022-09-29T07:04:20.194Z,16.95
2022-09-29T07:06:47.986Z,18.35
2022-09-29T07:09:17.996Z,23.30
2022-09-29T07:11:47.622Z,15.63
2022-09-29T07:14:15.532Z,16.40
2022-09-29T07:16:43.131Z,20.67
2022-09-29T07:19:10.403Z,18.20
2022-09-29T07:21:37.493Z,16.77
2022-09-29T07:24:04.678Z,17.73
2022-09-29T07:26:31.758Z,16.98
2022-09-29T07:28:58.911Z,18.13
2022-09-29T07:31:26.196Z,17.52
2022-09-29T07:33:53.363Z,18.38
2022-09-29T07:36:21.122Z,21.88
2022-09-29T07:38:49.897Z,19.20
2022-09-29T07:41:21.210Z,24.90
2022-09-29T07:43:48.391Z,19.17
2022-09-29T07:46:15.627Z,21.52
2022-09-29T07:48:42.845Z,21.75
2022-09-29T07:51:14.968Z,21.98
2022-09-29T07:53:42.589Z,19.48
2022-09-29T07:56:14.189Z,23.73
2022-09-29T07:58:42.153Z,20.55
2022-09-29T08:01:12.708Z,25.58
2022-09-29T08:03:41.731Z,29.20
2022-09-29T08:06:09.606Z,23.35
2022-09-29T08:08:40.059Z,22.60
2022-09-29T08:11:25.001Z,23.52
2022-09-29T08:13:56.779Z,25.00
2022-09-29T08:16:23.988Z,25.17
2022-09-29T08:18:51.141Z,23.45
2022-09-29T08:21:18.303Z,22.60
2022-09-29T08:23:45.438Z,24.10
2022-09-29T08:26:27.683Z,20.38
2022-09-29T08:29:07.412Z,23.55
2022-09-29T08:31:37.967Z,20.55
2022-09-29T08:34:05.245Z,20.88
2022-09-29T08:36:32.328Z,18.65
2022-09-29T08:39:00.144Z,18.33
2022-09-29T08:41:48.750Z,24.05
2022-09-29T08:44:37.171Z,23.80
2022-09-29T08:47:22.413Z,18.23
2022-09-29T08:49:55.690Z,21.60
2022-09-29T08:52:39.981Z,21.65
2022-09-29T08:55:21.121Z,21.27
2022-09-29T08:57:59.617Z,27.75
2022-09-29T09:00:52.719Z,20.60
2022-09-29T09:03:32.250Z,19.15
2022-09-29T09:06:06.535Z,19.90
2022-09-29T09:08:53.358Z,23.45
2022-09-29T09:11:54.341Z,19.40
2022-09-29T09:14:55.428Z,21.52
2022-09-29T09:17:39.557Z,20.60
2022-09-29T09:20:22.073Z,20.42
2022-09-29T09:22:59.876Z,22.10
2022-09-29T09:25:33.821Z,21.77
2022-09-29T09:28:18.539Z,17.83
2022-09-29T09:30:57.782Z,17.95
2022-09-29T09:33:32.136Z,20.15
2022-09-29T09:36:23.488Z,17.73
2022-09-29T09:39:11.663Z,17.43
2022-09-29T09:41:40.862Z,19.23
2022-09-29T09:44:16.316Z,19.92
2022-09-29T09:49:37.431Z,19.05
2022-09-29T09:52:18.423Z,15.82
2022-09-29T09:54:54.951Z,16.73
2022-09-29T09:57:50.103Z,17.23
2022-09-29T10:00:18.821Z,17.88
2022-09-29T10:02:48.529Z,19.23
2022-09-29T10:05:26.470Z,18.88
2022-09-29T10:07:53.803Z,15.85
2022-09-29T10:10:23.571Z,15.77
2022-09-29T10:12:59.960Z,17.08
2022-09-29T10:15:35.525Z,16.13
2022-09-29T10:18:16.984Z,15.05
2022-09-29T10:20:44.146Z,16.60
2022-09-29T10:23:29.519Z,16.35
2022-09-29T10:26:04.696Z,14.80
2022-09-29T10:28:47.010Z,10.88
2022-09-29T10:31:27.990Z,13.77
2022-09-29T10:34:17.965Z,15.38
2022-09-29T10:36:53.752Z,11.63
2022-09-29T10:39:43.038Z,10.40
2022-09-29T10:42:24.853Z,14.02
2022-09-29T10:44:54.714Z,11.68
2022-09-29T10:47:22.961Z,12.93
2022-09-29T10:50:08.530Z,10.23
2022-09-29T10:52:36.874Z,12.32
2022-09-29T10:55:05.839Z,10.30
2022-09-29T10:57:34.049Z,12.35
2022-09-29T11:00:02.055Z,9.25
2022-09-29T11:02:37.280Z,12.55
2022-09-29T11:05:24.718Z,10.07
2022-09-29T11:07:52.787Z,6.90
2022-09-29T11:10:30.570Z,8.98
2022-09-29T11:13:01.015Z,8.82
2022-09-29T11:15:30.319Z,8.98
2022-09-29T11:17:57.818Z,9.02
2022-09-29T11:20:28.397Z,10.68
2022-09-29T11:23:31.110Z,10.77
2022-09-29T11:26:13.480Z,9.27
2022-09-29T11:28:53.446Z,8.57
2022-09-29T11:31:36.515Z,11.38
2022-09-29T11:34:23.380Z,7.78
2022-09-29T11:39:53.944Z,6.10
2022-09-29T11:42:49.141Z,10.23
2022-09-29T11:49:00.307Z,8.07
2022-09-29T11:51:53.870Z,6.95
2022-09-29T11:54:29.629Z,7.93
2022-09-29T11:56:59.995Z,8.30
2022-09-29T11:59:46.432Z,4.88
2022-09-29T12:02:49.025Z,4.93
2022-09-29T12:05:34.989Z,7.80
2022-09-29T12:08:14.324Z,7.00
2022-09-29T12:10:46.735Z,8.15
2022-09-29T12:13:26.044Z,5.90
2022-09-29T12:15:57.543Z,7.88
2022-09-29T12:18:32.174Z,6.90
2022-09-29T12:21:00.507Z,10.97
2022-09-29T12:23:29.927Z,12.13
2022-09-29T12:26:03.278Z,6.38
2022-09-29T12:28:54.760Z,8.90
2022-09-29T12:31:26.463Z,9.45
2022-09-29T12:34:01.038Z,6.03
2022-09-29T12:36:53.740Z,5.57
2022-09-29T12:39:45.484Z,6.32
2022-09-29T12:42:40.434Z,7.03
2022-09-29T12:45:26.148Z,7.60
2022-09-29T12:48:19.458Z,7.75
2022-09-29T12:51:10.419Z,6.55
2022-09-29T12:53:40.466Z,5.57
2022-09-29T12:56:14.415Z,9.30
2022-09-29T12:58:50.102Z,9.73
2022-09-29T13:01:20.088Z,5.38
2022-09-29T13:03:54.828Z,4.70
2022-09-29T13:06:40.000Z,5.00
2022-09-29T13:09:25.015Z,7.30
2022-09-29T13:12:01.280Z,7.83
2022-09-29T13:14:34.195Z,5.75
2022-09-29T13:17:08.126Z,4.78
2022-09-29T13:19:57.829Z,6.03
2022-09-29T13:23:07.160Z,6.57
2022-09-29T13:25:37.045Z,5.13
2022-09-29T13:28:39.378Z,4.57
2022-09-29T13:31:12.024Z,4.53
2022-09-29T13:33:39.269Z,3.45
2022-09-29T13:36:06.433Z,4.50
2022-09-29T13:38:36.835Z,4.50
2022-09-29T13:41:16.218Z,3.30
2022-09-29T13:43:43.167Z,5.97
2022-09-29T13:46:31.869Z,3.63
2022-09-29T13:49:12.025Z,3.28
2022-09-29T13:51:53.470Z,6.63
2022-09-29T13:54:42.766Z,3.72
2022-09-29T13:57:12.794Z,5.07
2022-09-29T13:59:45.452Z,3.33
2022-09-29T14:02:34.499Z,3.65
2022-09-29T14:05:03.213Z,3.63
2022-09-29T14:07:49.461Z,5.13
2022-09-29T14:10:22.300Z,4.95
2022-09-29T14:12:56.909Z,4.35
2022-09-29T14:15:25.424Z,2.50
2022-09-29T14:17:57.114Z,3.35
2022-09-29T14:20:28.738Z,3.95
2022-09-29T14:23:04.073Z,3.28
2022-09-29T14:25:41.711Z,3.95
2022-09-29T14:28:13.553Z,4.55
2022-09-29T14:30:50.636Z,4.75
2022-09-29T14:33:36.275Z,3.22
2022-09-29T14:36:07.930Z,2.65
2022-09-29T14:38:39.529Z,3.50
2022-09-29T14:41:06.559Z,3.38
2022-09-29T14:43:42.528Z,3.38
2022-09-29T14:46:46.436Z,3.53
2022-09-29T14:49:47.448Z,3.38
2022-09-29T14:52:22.607Z,8.18
2022-09-29T14:55:04.503Z,2.30
2022-09-29T14:57:58.850Z,3.78
2022-09-29T15:00:51.458Z,3.55
2022-09-29T15:03:28.740Z,2.42
2022-09-29T15:06:17.057Z,5.38
2022-09-29T15:08:52.946Z,2.45
2022-09-29T15:11:26.444Z,2.55
2022-09-29T15:13:55.280Z,5.70
2022-09-29T15:16:53.478Z,3.42
2022-09-29T15:19:39.004Z,2.55
2022-09-29T15:22:28.511Z,3.42
2022-09-29T15:25:21.793Z,2.85
2022-09-29T15:27:51.440Z,2.97
2022-09-29T15:30:21.429Z,2.20
2022-09-29T15:32:50.640Z,2.08
2022-09-29T15:35:22.687Z,4.85
2022-09-29T15:37:49.693Z,2.47
2022-09-29T15:40:22.754Z,2.80
2022-09-29T15:42:53.040Z,3.50
2022-09-29T15:45:24.234Z,4.45
2022-09-29T15:48:02.453Z,4.22
2022-09-29T15:50:35.679Z,2.40
2022-09-29T15:53:03.468Z,3.47
2022-09-29T15:55:31.987Z,4.25
2022-09-29T15:57:59.158Z,2.47
2022-09-29T16:00:28.912Z,3.08
2022-09-29T16:03:24.180Z,2.53
2022-09-29T16:06:14.621Z,2.63
2022-09-29T16:08:46.795Z,2.80
2022-09-29T16:11:23.044Z,5.03
2022-09-29T16:13:55.046Z,3.05
2022-09-29T16:16:29.279Z,2.80
2022-09-29T16:19:01.106Z,4.57
2022-09-29T16:21:35.177Z,3.70
2022-09-29T16:24:02.146Z,3.72
2022-09-29T16:26:31.924Z,2.53
2022-09-29T16:29:07.882Z,2.70
2022-09-29T16:31:39.607Z,3.33
2022-09-29T16:34:30.983Z,3.22
2022-09-29T16:36:59.050Z,4.38
2022-09-29T16:39:39.531Z,3.33
2022-09-29T16:42:07.090Z,3.53
2022-09-29T16:44:36.709Z,4.07
2022-09-29T16:47:09.632Z,5.25
2022-09-29T16:49:44.122Z,5.10
2022-09-29T16:52:13.011Z,4.82
2022-09-29T16:54:45.175Z,6.07
2022-09-29T16:57:21.641Z,4.78
2022-09-29T16:59:54.672Z,8.13
2022-09-29T17:02:25.403Z,5.72
2022-09-29T17:04:53.762Z,5.30
2022-09-29T17:07:23.482Z,4.85
2022-09-29T17:09:55.817Z,5.82
2022-09-29T17:12:23.766Z,6.28
2022-09-29T17:14:51.087Z,6.00
2022-09-29T17:17:22.906Z,6.03
2022-09-29T17:19:51.133Z,7.15
2022-09-29T17:22:30.018Z,5.13
2022-09-29T17:24:57.658Z,5.53
2022-09-29T17:27:44.119Z,6.35
2022-09-29T17:30:17.531Z,6.25
2022-09-29T17:32:46.875Z,4.15
2022-09-29T17:35:15.336Z,6.70
2022-09-29T17:37:46.726Z,7.82
2022-09-29T17:40:24.468Z,6.30
2022-09-29T17:42:51.679Z,7.85
2022-09-29T17:45:19.992Z,8.45
2022-09-29T17:47:48.673Z,6.65
2022-09-29T17:50:30.175Z,7.18
2022-09-29T17:53:00.089Z,5.88
2022-09-29T17:55:27.200Z,8.23
2022-09-29T17:57:54.616Z,6.80
2022-09-29T18:00:31.496Z,7.82
2022-09-29T18:02:59.305Z,8.30
2022-09-29T18:05:28.639Z,9.98
2022-09-29T18:07:57.027Z,7.25
2022-09-29T18:10:34.510Z,11.18
2022-09-29T18:13:01.765Z,7.35
2022-09-29T18:15:28.873Z,6.90
2022-09-29T18:17:57.364Z,8.02
2022-09-29T18:20:25.733Z,6.47
2022-09-29T18:22:52.869Z,9.80
2022-09-29T18:25:19.916Z,8.43
2022-09-29T18:27:47.873Z,7.45
2022-09-29T18:30:30.040Z,9.18
2022-09-29T18:33:02.928Z,9.93
2022-09-29T18:35:32.874Z,9.10
2022-09-29T18:38:00.828Z,7.70
2022-09-29T18:40:30.533Z,7.32
2022-09-29T18:42:58.807Z,10.35
2022-09-29T18:45:29.465Z,9.07
2022-09-29T18:48:04.060Z,10.57
2022-09-29T18:50:33.300Z,11.50
2022-09-29T18:53:01.756Z,9.13
2022-09-29T18:55:30.962Z,11.43
2022-09-29T18:57:59.157Z,11.85
2022-09-29T19:00:34.408Z,20.00
2022-09-29T19:03:02.818Z,11.00
2022-09-29T19:05:31.788Z,13.90
2022-09-29T19:08:04.326Z,12.07
2022-09-29T19:10:33.426Z,13.48
2022-09-29T19:13:04.087Z,11.38
2022-09-29T19:15:34.689Z,11.50
2022-09-29T19:18:03.128Z,13.55
2022-09-29T19:20:30.250Z,13.55
2022-09-29T19:23:02.472Z,13.18
2022-09-29T19:25:33.196Z,12.70
2022-09-29T19:28:04.658Z,12.38
2022-09-29T19:30:38.268Z,15.05
2022-09-29T19:33:07.197Z,12.45
2022-09-29T19:35:34.425Z,11.88
2022-09-29T19:38:01.912Z,15.02
2022-09-29T19:40:31.601Z,12.50
2022-09-29T19:42:59.247Z,11.63
2022-09-29T19:45:27.683Z,11.85
2022-09-29T19:47:57.211Z,12.25
2022-09-29T19:50:43.370Z,10.77
2022-09-29T19:53:10.610Z,11.10
2022-09-29T19:55:41.139Z,14.00
2022-09-29T19:58:08.301Z,13.98
2022-09-29T20:00:35.707Z,13.15
2022-09-29T20:03:03.069Z,13.55
2022-09-29T20:05:30.295Z,12.27
2022-09-29T20:07:57.484Z,11.18
2022-09-29T20:10:28.344Z,15.63
2022-09-29T20:12:56.960Z,14.73
2022-09-29T20:15:24.808Z,13.77
2022-09-29T20:17:52.095Z,11.73
2022-09-29T20:20:19.261Z,11.82
2022-09-29T20:22:46.359Z,12.80
2022-09-29T20:25:13.436Z,12.00
2022-09-29T20:27:40.601Z,11.38
2022-09-29T20:30:08.721Z,20.10
2022-09-29T20:32:36.074Z,14.25
2022-09-29T20:35:06.228Z,13.27
2022-09-29T20:37:34.690Z,13.18
2022-09-29T20:40:02.227Z,11.25
2022-09-29T20:42:29.682Z,10.82
2022-09-29T20:44:57.139Z,10.45
2022-09-29T20:47:25.032Z,13.20
2022-09-29T20:49:54.895Z,11.77
2022-09-29T20:52:23.481Z,12.82
2022-09-29T20:54:50.582Z,9.95
2022-09-29T20:57:17.755Z,10.13
2022-09-29T20:59:44.871Z,12.70
2022-09-29T21:02:13.111Z,10.80
2022-09-29T21:04:42.260Z,17.23
2022-09-29T21:07:29.396Z,12.00
2022-09-29T21:09:56.486Z,13.20
2022-09-29T21:12:23.871Z,14.30
2022-09-29T21:14:51.019Z,13.52
2022-09-29T21:17:18.120Z,12.05
2022-09-29T21:19:45.581Z,12.45
2022-09-29T21:22:12.719Z,10.18
2022-09-29T21:24:41.487Z,12.10
2022-09-29T21:27:12.385Z,12.93
2022-09-29T21:29:40.534Z,11.95
2022-09-29T21:32:08.634Z,11.65
2022-09-29T21:34:35.743Z,11.80
2022-09-29T21:37:04.118Z,10.68
2022-09-29T21:39:32.221Z,10.93
2022-09-29T21:41:59.705Z,12.63
2022-09-29T21:44:26.788Z,10.73
2022-09-29T21:46:54.979Z,12.07
2022-09-29T21:49:22.485Z,13.85
2022-09-29T21:51:52.123Z,13.05
2022-09-29T21:54:22.703Z,11.98
2022-09-29T21:56:50.896Z,12.98
2022-09-29T21:59:22.522Z,14.13
2022-09-29T22:01:50.611Z,14.65
2022-09-29T22:04:18.473Z,13.52
2022-09-29T22:06:50.752Z,12.23
2022-09-29T22:09:20.492Z,11.98
2022-09-29T22:11:50.244Z,11.73
2022-09-29T22:14:19.058Z,15.35
2022-09-29T22:16:46.366Z,14.50
2022-09-29T22:19:29.210Z,11.85
2022-09-29T22:21:56.821Z,12.98
2022-09-29T22:24:24.454Z,10.55
2022-09-29T22:26:51.817Z,9.68
2022-09-29T22:29:19.756Z,12.68
2022-09-29T22:31:48.142Z,12.02
2022-09-29T22:34:15.685Z,11.25
2022-09-29T22:36:42.778Z,11.07
2022-09-29T22:39:10.431Z,9.52
2022-09-29T22:41:39.762Z,11.57
2022-09-29T22:44:09.326Z,9.48
2022-09-29T22:46:37.359Z,10.95
2022-09-29T22:49:05.159Z,10.60
2022-09-29T22:51:32.542Z,10.80
2022-09-29T22:53:59.630Z,9.85
2022-09-29T22:56:29.441Z,11.27
2022-09-29T22:59:01.474Z,8.60
2022-09-29T23:01:29.583Z,9.50
2022-09-29T23:03:57.462Z,7.70
2022-09-29T23:06:29.873Z,7.10
2022-09-29T23:08:58.047Z,9.07
2022-09-29T23:11:36.048Z,9.38
2022-09-29T23:14:03.559Z,9.27
2022-09-29T23:16:31.318Z,7.95
2022-09-29T23:18:58.941Z,10.05
2022-09-29T23:21:26.462Z,8.68
2022-09-29T23:23:59.587Z,6.97
2022-09-29T23:26:28.835Z,9.65
2022-09-29T23:28:56.304Z,8.27
2022-09-29T23:31:23.513Z,8.50
2022-09-29T23:33:55.709Z,7.57
2022-09-29T23:36:32.012Z,8.18
2022-09-29T23:39:11.477Z,12.07
2022-09-29T23:41:46.731Z,7.97
2022-09-29T23:44:16.701Z,7.38
2022-09-29T23:46:44.557Z,9.15
2022-09-29T23:49:14.193Z,7.63
2022-09-29T23:51:43.767Z,8.63
2022-09-29T23:54:13.388Z,7.78
2022-09-29T23:56:40.539Z,7.78
2022-09-29T23:59:07.906Z,8.07
